x

New London Ledge Ct - Ledge Light Weather Station (ldlc3) Weather Station

7:55pm - Mon 1st Jun 2015 All times are EDT. -4 hours from GMT.

  • Wind
    13mph, 16mph gusts
  • 空気 Temp 50°f
  • Sea Pressure 1020.5mb
  • New London Ledge Ct - Ledge Light Weather Station
  • New London Ledge Ct - Ledge Light Weather Station

More Historic Weather Station data

Upgrade to MSW Pro to gain access to the past 30 days of data for over 8000 Wavebouys and Weather Stations around the globe.

Join Pro

Comparision Forecast

View Surf forecast
   
Mon 06/01 7:55pm 13 16 mph 1020.5mb 50f
7:40pm 11 16 mph 1020.6mb 50f
7:25pm 10 14 mph 1020.6mb 50f
7:10pm 14 21 mph 1020.5mb 50f
6:55pm 13 18 mph 1020.6mb 50f
6:40pm 15 22 mph 1020.4mb 51f
6:25pm 14 21 mph 1020.3mb 51f
6:10pm 14 20 mph 1020.3mb 51f
5:55pm 14 22 mph 1020.4mb 51f
5:40pm 15 22 mph 1020.2mb 51f
5:25pm 14 18 mph 1020.1mb 51f
5:10pm 16 21 mph 1020.1mb 51f
4:55pm 15 22 mph 1020.1mb 52f
4:40pm 14 20 mph 1020.2mb 52f
4:25pm 14 20 mph 1020.1mb 53f
4:10pm 14 18 mph 1020.1mb 53f
3:55pm 14 18 mph 1020.1mb 53f
3:40pm 15 21 mph 1020.2mb 54f
3:25pm 11 20 mph 1020.4mb 54f
3:10pm 11 15 mph 1020.5mb 54f
2:55pm 11 20 mph 1020.5mb 54f
2:40pm 9 11 mph 1020.8mb 54f
2:25pm 13 16 mph 1020.8mb 54f
2:10pm 10 13 mph 1020.8mb 54f
1:55pm 10 15 mph 1020.5mb 54f
1:40pm 10 14 mph 1020.7mb 54f
1:25pm 10 15 mph 1020.8mb 55f
1:10pm 10 13 mph 1021mb 54f
12:55pm 10 13 mph 1021.2mb 55f
12:40pm 11 16 mph 1021mb 54f
12:25pm 11 17 mph 1021mb 54f
12:10pm 11 16 mph 1021mb 54f
11:55am 10 15 mph 1021mb 53f
11:40am 11 15 mph 1021mb 53f
11:25am 10 15 mph 1021.2mb 53f
11:10am 11 16 mph 1021.2mb 52f
10:55am 13 16 mph 1021.3mb 52f
10:40am 8 11 mph 1021.3mb 52f
10:25am 8 11 mph 1021.3mb 52f
10:10am 8 10 mph 1021.4mb 52f
9:55am 8 11 mph 1021.5mb 53f
9:40am 10 14 mph 1021.3mb 52f
9:25am 11 15 mph 1021mb 52f
9:10am 9 13 mph 1021.1mb 52f
8:55am 11 16 mph 1020.8mb 52f
8:40am 13 16 mph 1020.8mb 52f
8:25am 14 17 mph 1020.8mb 51f
8:10am 15 17 mph 1020.9mb 51f
7:55am 15 17 mph 1021.2mb 51f
7:40am 15 20 mph 1021.2mb 51f
7:25am 11 14 mph 1021.2mb 51f
7:10am 10 14 mph 1021.2mb 51f
6:55am 11 15 mph 1021.2mb 51f
6:40am 9 11 mph 1021.2mb 51f
6:25am 7 9 mph 1021.3mb 51f
6:10am 6 8 mph 1021.4mb 51f
5:55am 8 11 mph 1021.2mb 51f
5:40am 7 9 mph 1021mb 51f
5:25am 8 11 mph 1020.8mb 51f
5:10am 8 11 mph 1020.4mb 51f
4:55am 11 15 mph 1020.3mb 51f
4:40am 14 16 mph 1020.1mb 51f
4:25am 13 14 mph 1020.1mb 51f
4:10am 15 17 mph 1020.2mb 51f
3:55am 13 16 mph 1020.2mb 51f
3:40am 10 15 mph 1020.3mb 51f
3:25am 10 16 mph 1020.5mb 51f
3:10am 9 13 mph 1020.6mb 51f
2:55am 10 15 mph 1020.7mb 51f
2:40am 13 18 mph 1020.7mb 51f
2:25am 13 17 mph 1021.1mb 51f
2:10am 15 20 mph 1020.9mb 51f
1:55am 15 23 mph 1021.1mb 51f
1:40am 11 16 mph 1021.4mb 51f
1:25am 11 18 mph 1021.3mb 52f
1:10am 9 13 mph 1021.5mb 52f
Sun 05/31 7:55pm 16 24 mph 1020.6mb 56f
7:40pm 14 20 mph 1020.1mb 57f
7:10pm 14 20 mph 1019.9mb 58f
6:55pm 23 29 mph 1019mb 59f
6:40pm 17 25 mph 1018.8mb 62f
6:25pm 16 20 mph 1018.2mb 64f
6:10pm 11 14 mph 1017.5mb 65f
5:55pm 7 8 mph 1017.4mb 66f
5:40pm 6 7 mph 1017.3mb 66f
5:25pm 5 6 mph 1017.3mb 65f
5:10pm 3
mph
1017.2mb 66f
4:55pm 2
mph
1017.4mb 65f
4:40pm 2
mph
1017.1mb 66f
4:25pm 1 2 mph 1017.1mb 67f
4:10pm  -  1 mph 1017.5mb 66f
3:55pm 1 2 mph 1017.5mb 66f
3:40pm 2 3 mph 1017.4mb 65f
3:25pm 5 6 mph 1017.5mb 66f
3:10pm 1 5 mph 1017.6mb 66f
2:55pm 3 5 mph 1017.6mb 64f
2:40pm 2 3 mph 1017.7mb 64f
2:25pm 3 6 mph 1017.6mb 66f
2:10pm 5 6 mph 1017.6mb 64f
1:55pm 3 6 mph 1017.9mb 63f
1:40pm 13 14 mph 1017.7mb 64f
1:25pm 16 18 mph 1017.5mb 65f
1:10pm 17 18 mph 1017.6mb 64f
12:55pm 17
mph
1017.6mb 64f
12:40pm 11 14 mph 1018mb 64f
12:25pm 10 11 mph 1018.1mb 65f
12:10pm 9 10 mph 1018.1mb 67f
11:55am 10
mph
1018.1mb 66f
11:40am 9
mph
1018.1mb 66f
11:25am 10
mph
1018.3mb 66f
11:10am 9
mph
1018.2mb 66f
10:55am 7
mph
1018.4mb 66f
10:40am 6
mph
1018.4mb 66f
10:25am 3 5 mph 1018.4mb 65f
10:10am 3 5 mph 1018.3mb 66f
9:55am 3 5 mph 1018.4mb 65f
9:40am 6 7 mph 1018.2mb 65f
9:25am 6 8 mph 1018.2mb 67f
9:10am 8
mph
1018.3mb 64f
8:55am 11 13 mph 1018.3mb 63f
8:40am 14 16 mph 1018.2mb 63f
8:25am 14 16 mph 1018.1mb 63f
8:10am 10 13 mph 1018.2mb 62f
7:55am 7 9 mph 1018mb 62f
7:40am 7
mph
1018mb 61f
7:25am 8 9 mph 1018.1mb 62f
7:10am 6
mph
1018.2mb 61f
6:55am 7
mph
1018.2mb 61f
6:40am 8 9 mph 1018.2mb 61f
6:25am 8 9 mph 1018.1mb 62f
6:10am 8 10 mph 1017.9mb 61f
5:55am 7 9 mph 1018mb 63f
5:40am 8 9 mph 1017.9mb 64f
5:25am 5 7 mph 1018mb 64f
5:10am 5 6 mph 1018mb 64f
4:55am 5 6 mph 1018mb 64f
4:40am 3 5 mph 1018mb 63f
4:25am 6
mph
1017.9mb 63f
4:10am 6 7 mph 1017.9mb 64f
3:55am 8
mph
1017.9mb 64f
3:40am 10
mph
1017.9mb 64f
3:25am 9
mph
1017.9mb 64f
3:10am 9
mph
1017.9mb 63f
2:55am 9
mph
1017.9mb 63f
2:40am 8 9 mph 1018.2mb 63f
2:10am 9 10 mph 1018.3mb 65f
1:55am 8 10 mph 1018.3mb 65f
1:40am 8 9 mph 1018.6mb 65f
1:25am 6 9 mph 1018.7mb 64f
1:10am 8 10 mph 1018.8mb 65f
Sat 05/30 7:55pm 17 18 mph 1018.7mb 64f
7:40pm 18 21 mph 1019mb 64f
7:25pm 13 14 mph 1019.2mb 63f
7:10pm 13 14 mph 1019.4mb 63f
6:55pm 17 18 mph 1019.1mb 66f
6:40pm 15 16 mph 1019.3mb 64f
6:25pm 14 17 mph 1019.3mb 64f
6:10pm 15 17 mph 1019.4mb 64f
5:55pm 15 20 mph 1019.4mb 64f
5:40pm 20 21 mph 1019.2mb 67f
5:25pm 21 22 mph 1019.2mb 66f
5:10pm 21 23 mph 1019.4mb 66f
4:55pm 17 21 mph 1019.7mb 65f
4:40pm 11 15 mph 1019.8mb 65f
4:25pm 10 13 mph 1019.9mb 65f
4:10pm 16 17 mph 1019.8mb 65f
3:55pm 11 14 mph 1020.2mb 66f
3:40pm 8 9 mph 1020.5mb 66f
3:25pm 7 9 mph 1020.8mb 66f
3:10pm 8 9 mph 1020.9mb 65f
2:55pm 8 9 mph 1021mb 64f
2:40pm 9
mph
1021.1mb 65f
2:25pm 10 13 mph 1021.2mb 65f
2:10pm 15 17 mph 1021.3mb 67f
1:55pm 8 13 mph 1021.5mb 66f
1:40pm 8 10 mph 1021.6mb 69f
1:25pm 7 8 mph 1021.8mb 67f
1:10pm 5 7 mph 1021.9mb 67f
12:55pm 3
mph
1022.1mb 67f
12:40pm 3 5 mph 1022.2mb 64f
12:25pm 7 8 mph 1022.4mb 66f
12:10pm 8 9 mph 1022.4mb 65f
11:55am 8
mph
1022.4mb 63f
11:40am 6 7 mph 1022.6mb 63f
11:25am 5 6 mph 1022.9mb 62f
11:10am 6
mph
1023mb 62f
10:55am 6 7 mph 1023.1mb 63f
10:40am 6 7 mph 1023.1mb 62f
10:25am 5 6 mph 1023.2mb 62f
10:10am 3 5 mph 1023.1mb 60f
9:55am 3 5 mph 1023.2mb 59f
9:40am 6
mph
1023.3mb 58f
9:25am 5
mph
1023.4mb 58f
9:10am 5 6 mph 1023.4mb 58f
8:55am 5 6 mph 1023.4mb 57f
8:40am 7 8 mph 1023.3mb 57f
8:25am 8 9 mph 1023.3mb 56f
8:10am 7 8 mph 1023.4mb 55f
7:55am 7 8 mph 1023.6mb 56f
7:40am 8 9 mph 1023.6mb 56f
7:25am 8 9 mph 1023.7mb 56f
7:10am 6 7 mph 1023.6mb 57f
6:55am 5 6 mph 1023.4mb 56f
6:40am 5
mph
1023.3mb 56f
6:25am 6 7 mph 1023.4mb 56f
6:10am 5
mph
1023.3mb 56f
5:55am 5 6 mph 1023.3mb 56f
5:40am 2
mph
1023mb 56f
5:25am 2
mph
1022.9mb 56f
5:10am 2
mph
1022.9mb 56f
4:55am 2
mph
1022.8mb 56f
4:40am 3
mph
1022.6mb 56f
4:25am 2 3 mph 1022.5mb 55f
4:10am 2 3 mph 1022.4mb 55f
3:55am 5 6 mph 1022.5mb 55f
3:40am 5 6 mph 1022.7mb 55f
3:25am 3
mph
1022.7mb 55f
3:10am 2
mph
1022.6mb 55f
2:55am 5 6 mph 1022.8mb 55f
2:40am 3
mph
1022.9mb 55f
2:25am 2 3 mph 1022.9mb 55f
2:10am 3
mph
1023mb 55f
1:55am 3
mph
1023.1mb 55f
1:40am 3 5 mph 1023.2mb 55f
1:25am 3
mph
1023.1mb 55f
1:10am 5 6 mph 1023mb 55f
Fri 05/29 7:55pm 3 5 mph 1024mb 61f
7:40pm 7
mph
1023.6mb 60f
7:25pm 2 3 mph 1023.9mb 61f
7:10pm 2 3 mph 1023.9mb 62f
6:55pm 2
mph
1023.9mb 61f
6:40pm 3 5 mph 1024.1mb 62f
6:25pm 3
mph
1024mb 62f
6:10pm 2 3 mph 1024mb 63f
5:55pm 5 6 mph 1023.9mb 63f
5:40pm 6 7 mph 1023.8mb 63f
5:25pm 6 7 mph 1023.9mb 63f
5:10pm 8 9 mph 1024.1mb 63f
4:55pm 5 6 mph 1024.2mb 63f
4:40pm 5 6 mph 1024.3mb 62f
4:25pm 8 9 mph 1024.3mb 62f
4:10pm 7 9 mph 1024.4mb 63f
3:55pm 8 9 mph 1024.4mb 63f
3:40pm 8 9 mph 1024.5mb 63f
3:25pm 9 10 mph 1024.6mb 63f
3:10pm 10 11 mph 1024.5mb 64f
2:55pm 7 9 mph 1024.6mb 64f
2:40pm 10
mph
1024.6mb 65f
2:25pm 6 7 mph 1024.7mb 64f
2:10pm 11
mph
1024.6mb 63f
1:55pm 8
mph
1024.7mb 64f
1:40pm 8 9 mph 1024.8mb 64f
1:25pm 9 10 mph 1025mb 64f
1:10pm 9
mph
1025mb 65f
12:55pm 10 11 mph 1025mb 64f
12:40pm 13 14 mph 1024.9mb 65f
12:25pm 11 13 mph 1024.9mb 66f
12:10pm 10 11 mph 1025mb 66f
11:55am 10
mph
1025.1mb 67f
11:40am 9
mph
1025mb 67f
11:25am 8
mph
1025mb 69f
11:10am 6
mph
1025.2mb 69f
10:55am 6 8 mph 1025.3mb 70f
10:40am 3 5 mph 1025.3mb 71f
10:25am 5 6 mph 1025.3mb 70f
10:10am 3
mph
1025.3mb 68f
9:55am  -  1 mph 1025.2mb 73f
9:40am  -  1 mph 1025.3mb 72f
9:25am 3 5 mph 1025.3mb 70f
9:10am 5 7 mph 1025.2mb 69f
8:55am 7 9 mph 1025.2mb 69f
8:40am 9 13 mph 1025.2mb 68f
8:25am 8 10 mph 1025.2mb 67f
8:10am 10 13 mph 1025.1mb 67f
7:55am 11
mph
1025mb 66f
7:40am 10 11 mph 1025.1mb 65f
7:25am 11 13 mph 1024.9mb 65f
7:10am 14 15 mph 1024.8mb 64f
6:55am 14 15 mph 1024.6mb 64f
6:40am 13 14 mph 1024.5mb 63f
6:25am 9 10 mph 1024.4mb 64f
6:10am 7 8 mph 1024.3mb 63f
5:55am 9 10 mph 1024.2mb 62f
5:40am 10 11 mph 1024.2mb 62f
5:25am 11 14 mph 1024.1mb 62f
5:10am 11
mph
1024mb 62f
4:55am 9 11 mph 1023.8mb 62f
4:40am 10 11 mph 1023.7mb 62f
4:25am 8 9 mph 1023.6mb 62f
4:10am 7 8 mph 1023.6mb 62f
3:55am 7 9 mph 1023.4mb 63f
3:40am 7
mph
1023.4mb 63f
3:25am 6 7 mph 1023.3mb 63f
3:10am 6 7 mph 1023.2mb 63f
2:55am 6 7 mph 1023.2mb 63f
2:40am 7
mph
1023.2mb 64f
2:25am 6 7 mph 1023.2mb 63f
2:10am 8
mph
1023.2mb 65f
1:55am 9 10 mph 1023mb 65f